Terminal Aerodrome Forecast
Issued by NWS Pocatello, ID

Current Version | Previous Version | Text Only | Print | Product List | Glossary On
Versions: 1 2 3 4 5 6 7 8 9 10 11 12 13 14 15 16 17 18 19
731
FTUS45 KPIH 201727
TAFBYI
TAF
KBYI 201727Z 2018/2118 20015G25KT P6SM -SHRA SCT025 BKN040 OVC060
     FM210200 18012G22KT P6SM -SHRA SCT025 OVC040
      TEMPO 2105/2109 5SM -SHRA BR SCT015 BKN025 OVC040=

USA.gov is the U.S. government's official web portal to all federal, state and local government web resources and services.